Japan Airlines Virtual Airport Information Service

Miyazaki Airport

ICAO: RJFM Country: Japan
Latitude: 31.8772 Longitude: 131.449
Latest Arrival : JAL689 (RJTT-RJFM) Latest Departure : JAL3622 (RJFM-RJFF)


WX CaptureLIVE
Data provided by noaa.gov | Fetched at 15:17:34

METAR : RJFM 231100Z 12011KT 9999 FEW015 SCT030 BKN060 20/15 Q1016

TAF : RJFM 231105Z 2312/2418 08016KT 9999 FEW020 BKN040 BECMG 2415/2418 29006KT


Runway Data for RJFM
Data provided by openaviationdata.com

Runway ID Mag Var Hdg Length Elevation Surface ILS Freq ILS Id ILS Slope
9 -6 91° 8194 ft 19 ft Asphalt -- -- --
27 -6 271° 8194 ft 19 ft Asphalt 108.9 IMZ 3

Miyazaki Airport, Japan
Use only for reference purposes



Not for navigational purposes.